Weather reports worldwide

Advertisment
Xinzo De Limia, Spain (8050): temperature & dewpoint: 09.10.2019 20:00:00 - 15.10.2019 20:00:00 (CEST)Xinzo De Limia, Spain (8050): wind speed & gusts: 09.10.2019 20:00:00 - 15.10.2019 20:00:00 (CEST)Xinzo De Limia, Spain (8050): wind direction: 09.10.2019 20:00:00 - 15.10.2019 20:00:00 (CEST)Xinzo De Limia, Spain (8050): precipitation: 09.10.2019 20:00:00 - 15.10.2019 20:00:00 (CEST)
Date & Time tt [°C] td [°C] ff [km/h] ff [kn] fx [km/h] fx [kn] dd rr [mm]
15.10.2019 20:00:00 - - - - - - - -
15.10.2019 19:00:00 11,8 6,1 10 5 25 14 SW 0,0
15.10.2019 18:00:00 11,4 6,5 5 3 12 7 S 0,0
15.10.2019 17:00:00 11,4 5,8 8 5 24 13 SW 0,0
15.10.2019 16:00:00 11,7 7,0 8 4 25 14 SW 0,1
15.10.2019 15:00:00 11,5 8,1 10 5 28 15 SW 0,0
15.10.2019 14:00:00 11,2 7,1 12 6 31 17 WSW -
15.10.2019 13:00:00 10,8 9,2 5 3 14 7 E 0,0
15.10.2019 12:00:00 10,1 8,9 7 4 14 8 ESE 0,0
15.10.2019 11:00:00 8,0 7,0 7 4 15 8 SE 0,0
15.10.2019 10:00:00 6,7 5,6 7 4 12 6 SE 0,0
15.10.2019 09:00:00 5,5 4,5 3 1 11 6 SSE 0,0
15.10.2019 08:00:00 4,7 3,6 0 0 9 5 E -
15.10.2019 07:00:00 4,9 3,8 2 1 6 3 S 0,0
15.10.2019 06:00:00 5,2 4,1 1 0 7 4 SW 0,0
15.10.2019 05:00:00 5,6 4,5 1 1 8 4 W 0,0
15.10.2019 04:00:00 5,0 3,8 2 1 8 4 S 0,0
15.10.2019 03:00:00 5,1 3,8 3 1 8 5 SSW 0,0
15.10.2019 02:00:00 4,6 3,2 0 0 16 9 S -
15.10.2019 01:00:00 5,5 3,9 5 3 17 9 WSW 0,0
15.10.2019 00:00:00 4,6 2,9 3 2 10 6 WSW 0,0
14.10.2019 23:00:00 5,1 3,0 2 1 12 7 WSW 0,0
14.10.2019 22:00:00 5,8 3,6 6 3 21 11 W 0,0
14.10.2019 21:00:00 5,8 3,2 2 1 13 7 SW 0,0
14.10.2019 20:00:00 6,5 3,4 5 3 40 22 W -
14.10.2019 19:00:00 8,7 3,0 18 10 38 21 W 0,0
14.10.2019 18:00:00 10,3 3,4 16 9 37 20 W 0,0
14.10.2019 17:00:00 9,4 5,1 15 8 34 19 W 0,1
14.10.2019 16:00:00 9,5 6,7 14 8 28 15 W 0,2
14.10.2019 15:00:00 8,3 5,8 10 5 36 19 W 2,3
14.10.2019 14:00:00 12,5 9,2 13 7 32 17 SW -
14.10.2019 13:00:00 12,0 10,8 9 5 22 12 SSW 0,0
14.10.2019 12:00:00 9,5 8,4 3 2 15 8 WSW 0,0
14.10.2019 11:00:00 8,9 7,8 2 1 26 14 W 3,6
14.10.2019 10:00:00 8,9 7,8 5 3 13 7 S 0,7
14.10.2019 09:00:00 8,2 7,1 7 4 16 9 SSE 0,0
14.10.2019 08:00:00 7,9 6,8 4 2 7 4 SSE -
14.10.2019 07:00:00 8,3 7,3 4 2 22 12 SSE 0,1
14.10.2019 06:00:00 8,8 7,7 8 4 17 9 SE 1,1
14.10.2019 05:00:00 9,1 7,8 5 3 10 6 SE 0,6
14.10.2019 04:00:00 9,3 8,3 1 1 11 6 E 2,2
14.10.2019 03:00:00 9,3 8,1 6 3 15 8 NNW 1,8
14.10.2019 02:00:00 10,4 9,2 5 3 12 7 WNW -
14.10.2019 01:00:00 11,2 9,9 8 5 26 14 N 0,9
14.10.2019 00:00:00 12,3 11,0 5 3 9 5 ENE 0,5
13.10.2019 23:00:00 12,4 11,1 2 1 9 5 SW 3,4
13.10.2019 22:00:00 12,6 11,2 0 0 5 3 WSW 2,0
13.10.2019 21:00:00 12,9 11,3 0 0 3 2 S 2,7
13.10.2019 20:00:00 13,1 11,3 0 0 8 4 NE -
13.10.2019 19:00:00 13,3 11,6 1 0 19 10 E 0,1
13.10.2019 18:00:00 13,8 12,0 6 4 13 7 SSE 0,1
13.10.2019 17:00:00 13,7 11,4 2 1 15 8 W 1,2
13.10.2019 16:00:00 14,4 11,6 4 2 21 11 S 1,3
13.10.2019 15:00:00 15,1 12,0 13 7 27 15 S 0,1
13.10.2019 14:00:00 14,6 13,2 5 3 24 13 SSE -
13.10.2019 13:00:00 14,9 13,7 7 4 22 12 SE 0,0
13.10.2019 12:00:00 13,7 12,4 6 3 13 7 SE 1,5
13.10.2019 11:00:00 12,8 11,6 9 5 23 13 SE 2,1
13.10.2019 10:00:00 12,6 11,0 13 7 23 13 SE 2,5
13.10.2019 09:00:00 12,5 10,4 9 5 28 15 SSE 2,8
13.10.2019 08:00:00 13,2 10,2 14 7 32 18 SSE -
13.10.2019 07:00:00 13,5 9,9 18 10 33 18 SE 0,0
13.10.2019 06:00:00 13,9 8,9 19 10 37 20 SE 0,0
13.10.2019 05:00:00 14,2 9,0 18 10 39 21 S 0,0
13.10.2019 04:00:00 14,4 9,0 18 10 39 21 S 0,0
13.10.2019 03:00:00 14,5 8,3 14 8 35 19 S 0,0
13.10.2019 02:00:00 14,3 8,3 17 9 39 21 S -
13.10.2019 01:00:00 14,6 8,9 15 8 33 18 S 0,0
13.10.2019 00:00:00 13,8 8,7 9 5 21 12 S 0,0
12.10.2019 23:00:00 13,6 8,0 5 3 24 13 S 0,0
12.10.2019 22:00:00 14,3 8,5 10 6 30 16 SW 0,0
12.10.2019 21:00:00 15,4 9,3 15 8 31 17 SSW 0,0
12.10.2019 20:00:00 16,8 10,2 14 8 30 16 SSW -
12.10.2019 19:00:00 18,6 10,2 9 5 31 17 WSW 0,0
12.10.2019 18:00:00 21,6 9,8 19 10 39 21 SSW 0,0
12.10.2019 17:00:00 22,2 10,3 18 10 38 21 S 0,0
12.10.2019 16:00:00 23,4 10,0 17 9 41 22 SSW 0,0
12.10.2019 15:00:00 23,5 10,5 14 8 38 21 SSW 0,0
12.10.2019 14:00:00 22,4 10,5 20 11 36 19 S -
12.10.2019 13:00:00 20,9 10,6 19 10 36 20 S 0,0
12.10.2019 12:00:00 18,3 10,6 11 6 29 16 SSE 0,0
12.10.2019 11:00:00 17,2 11,0 11 6 30 16 SSE 0,0
12.10.2019 10:00:00 15,8 11,0 12 6 27 14 SSE 0,0
12.10.2019 09:00:00 13,7 10,6 15 8 24 13 SSE 0,0
12.10.2019 08:00:00 12,9 10,3 8 4 17 9 S -
12.10.2019 07:00:00 13,3 10,9 10 5 19 10 S 0,0
12.10.2019 06:00:00 10,9 8,3 0 0 7 4 ESE 0,0
12.10.2019 05:00:00 11,5 8,9 5 3 14 8 NNW 0,0
12.10.2019 04:00:00 11,2 9,2 1 0 8 4 WSW 0,0
12.10.2019 03:00:00 9,9 7,8 1 1 6 3 ESE 0,0
12.10.2019 02:00:00 9,3 6,7 1 1 5 3 ESE -
12.10.2019 01:00:00 9,6 6,2 0 0 4 2 N 0,0
12.10.2019 00:00:00 11,3 6,4 1 1 6 3 SSE 0,0
11.10.2019 23:00:00 14,3 7,3 0 0 11 6 SSW 0,0
11.10.2019 22:00:00 16,5 8,0 6 3 23 12 W 0,0
11.10.2019 21:00:00 17,0 6,8 9 5 18 10 WNW 0,0
11.10.2019 20:00:00 19,1 5,9 10 6 26 14 W -
11.10.2019 19:00:00 22,5 7,1 11 6 30 16 W 0,0
11.10.2019 18:00:00 24,9 7,6 9 5 27 14 W 0,0
11.10.2019 17:00:00 26,2 8,3 11 6 29 16 W 0,0
11.10.2019 16:00:00 26,5 8,5 16 9 42 23 SSW 0,0
11.10.2019 15:00:00 26,4 8,8 15 8 39 21 SSW 0,0
11.10.2019 14:00:00 26,0 8,5 15 8 30 16 SSW -
11.10.2019 13:00:00 23,9 7,1 13 7 31 17 SE 0,0
11.10.2019 12:00:00 21,3 5,6 14 8 27 14 SE 0,0
11.10.2019 11:00:00 15,4 13,6 9 5 21 11 SE 0,0
11.10.2019 10:00:00 6,9 5,6 4 2 7 4 SW 0,0
11.10.2019 09:00:00 2,3 1,1 0 0 5 3 WSW 0,0
11.10.2019 08:00:00 2,6 1,5 0 0 3 2 SSW -
11.10.2019 07:00:00 3,8 2,5 1 1 6 4 SSW 0,0
11.10.2019 06:00:00 4,5 3,0 4 2 15 8 SSW 0,0
11.10.2019 05:00:00 5,1 3,6 5 3 10 6 SW 0,0
11.10.2019 04:00:00 4,8 3,2 2 1 8 4 SSW 0,0
11.10.2019 03:00:00 4,9 3,0 3 2 7 4 SSW 0,0
11.10.2019 02:00:00 5,6 3,6 5 3 8 4 SSW -
11.10.2019 01:00:00 6,3 3,8 2 1 6 3 SW 0,0
11.10.2019 00:00:00 7,5 4,5 1 1 6 4 SSW 0,0
10.10.2019 23:00:00 8,4 4,8 4 2 6 4 SSE 0,0
10.10.2019 22:00:00 11,3 6,1 5 3 8 4 SW 0,0
10.10.2019 21:00:00 13,0 5,5 0 0 7 4 N 0,0
10.10.2019 20:00:00 17,7 5,6 2 1 15 8 NNW -
10.10.2019 19:00:00 22,9 4,8 9 5 19 10 SE 0,0
10.10.2019 18:00:00 23,9 5,8 9 5 23 12 ESE 0,0
10.10.2019 17:00:00 23,8 5,6 9 5 18 10 E 0,0
10.10.2019 16:00:00 23,3 5,6 7 4 22 12 ESE 0,0
10.10.2019 15:00:00 21,7 5,9 8 4 23 12 ESE 0,0
10.10.2019 14:00:00 - - - - - - - -
10.10.2019 13:00:00 15,1 13,9 5 3 12 7 SE 0,0
10.10.2019 12:00:00 8,5 7,6 3 2 7 4 WNW 0,0
10.10.2019 11:00:00 5,9 5,0 1 1 6 4 E 0,0
10.10.2019 10:00:00 4,8 3,9 0 0 6 3 SE 0,0
10.10.2019 09:00:00 4,3 3,2 5 3 7 4 SSW 0,0
10.10.2019 08:00:00 4,4 3,4 2 1 4 2 N -
10.10.2019 07:00:00 3,2 2,1 4 2 6 4 N 0,0
10.10.2019 06:00:00 2,3 1,1 0 0 6 3 N 0,0
10.10.2019 05:00:00 4,0 2,7 4 2 6 3 S 0,0
10.10.2019 04:00:00 5,0 3,4 5 3 9 5 SSW 0,0
10.10.2019 03:00:00 5,2 3,6 3 2 9 5 SW 0,0
10.10.2019 02:00:00 5,9 3,9 5 3 10 5 SW -
10.10.2019 01:00:00 6,6 4,3 6 3 16 9 SW 0,0
10.10.2019 00:00:00 7,6 4,6 7 4 11 6 NW 0,0
09.10.2019 23:00:00 9,1 5,1 4 2 16 9 NW 0,0
09.10.2019 22:00:00 10,0 5,0 8 5 15 8 NW 0,0
09.10.2019 21:00:00 10,9 4,6 7 4 13 7 NW 0,0
09.10.2019 20:00:00 12,7 4,1 9 5 26 14 NNW -

tt = temperature
td = dewpoint
ff = wind speed
fx = gusts
dd = wind direction
rr = precipitation

Next stations